Rona II — MPKR2 — position and weather

sailwx.info

Track history (hours):
 
Tides and Currents Weather Stations Pressure Air Temp Water Temp Dewpoint Dewpoint Depression Visibility Wind Speed Wind Dir Waves Ship Positions

Rona II

Last reported at 2015-Aug-23 09:33 UTC. Time now 2015-Sep-01 12:09 UTC.
Position N 50°38' W 001°50'.
Warning: this ship's position is 9 days out of date.

Length 22 m.

Type: Sailing vessel. MMSI: 232714000.

Date/timePositionNaut miles runAvg speedWind from/ knotsBaromVisibWave heightAir tempDewpointWater temp
2015-Aug-23 09:33N 50°38' W 001°50'4 0.1
2015-Aug-22 06:03N 50°36' W 001°56'3 4.8
2015-Aug-22 05:31N 50°39' W 001°55'1 0.2
2015-Aug-22 02:32N 50°39' W 001°56'0 0.0
2015-Aug-22 01:32N 50°39' W 001°56'0 0.0
2015-Aug-22 00:29N 50°39' W 001°56'0 0.0
2015-Aug-21 19:13N 50°39' W 001°56'2 3.2
2015-Aug-21 18:33N 50°40' W 001°53'88 2.0
2015-Aug-19 22:31N 50°43' E 000°26'47 1.3
2015-Aug-18 10:29N 51°11' E 001°26'7 7.9
2015-Aug-18 09:33N 51°18' E 001°30'6 5.9
2015-Aug-18 08:33N 51°21' E 001°38'7 6.2
2015-Aug-18 07:27N 51°25' E 001°46'117 5.7
2015-Aug-17 11:03N 52°27' E 004°26'3 5.1
2015-Aug-17 10:33N 52°28' E 004°30'2 2.1
2015-Aug-17 09:32N 52°28' E 004°34'0 0.0
2015-Aug-17 08:32N 52°28' E 004°34'0 0.0
2015-Aug-15 09:31N 52°28' E 004°34'0 0.0
2015-Aug-15 08:31N 52°28' E 004°34'0 0.0
2015-Aug-15 07:28N 52°28' E 004°34'0 0.0
2015-Aug-15 06:25N 52°28' E 004°34'0 0.1
2015-Aug-15 05:33N 52°28' E 004°34'3 2.8
2015-Aug-15 04:32N 52°30' E 004°32'3 2.9
2015-Aug-15 03:33N 52°33' E 004°31'3 3.0
2015-Aug-15 02:34N 52°36' E 004°32'1 1.1
2015-Aug-15 01:33N 52°37' E 004°31'3 3.1
2015-Aug-15 00:33N 52°40' E 004°30'3 2.8
2015-Aug-14 23:33N 52°43' E 004°31'4 4.3
2015-Aug-14 22:33N 52°46' E 004°36'39 1.5
2015-Aug-13 20:31N 53°19' E 005°08'4 4.4
2015-Aug-13 19:32N 53°19' E 005°15'2 2.4
2015-Aug-13 18:33N 53°20' E 005°12'1 1.3
2015-Aug-13 17:33N 53°22' E 005°13'  
Track history (hours):
 
Tides and Currents Weather Stations Pressure Air Temp Water Temp Dewpoint Dewpoint Depression Visibility Wind Speed Wind Dir Waves Ship Positions

Rona II

Last reported at 2015-Aug-23 09:33 UTC. Time now 2015-Sep-01 12:09 UTC.
Position N 50°38' W 001°50'.
Warning: this ship's position is 9 days out of date.

Length 22 m.

Type: Sailing vessel. MMSI: 232714000.

Date/timePositionNaut miles runAvg speedWind from/ knotsBaromVisibWave heightAir tempDewpointWater temp
2015-Aug-23 09:33N 50°38' W 001°50'4 0.1
2015-Aug-22 06:03N 50°36' W 001°56'3 4.8
2015-Aug-22 05:31N 50°39' W 001°55'1 0.2
2015-Aug-22 02:32N 50°39' W 001°56'0 0.0
2015-Aug-22 01:32N 50°39' W 001°56'0 0.0
2015-Aug-22 00:29N 50°39' W 001°56'0 0.0
2015-Aug-21 19:13N 50°39' W 001°56'2 3.2
2015-Aug-21 18:33N 50°40' W 001°53'88 2.0
2015-Aug-19 22:31N 50°43' E 000°26'47 1.3
2015-Aug-18 10:29N 51°11' E 001°26'7 7.9
2015-Aug-18 09:33N 51°18' E 001°30'6 5.9
2015-Aug-18 08:33N 51°21' E 001°38'7 6.2
2015-Aug-18 07:27N 51°25' E 001°46'117 5.7
2015-Aug-17 11:03N 52°27' E 004°26'3 5.1
2015-Aug-17 10:33N 52°28' E 004°30'2 2.1
2015-Aug-17 09:32N 52°28' E 004°34'0 0.0
2015-Aug-17 08:32N 52°28' E 004°34'0 0.0
2015-Aug-15 09:31N 52°28' E 004°34'0 0.0
2015-Aug-15 08:31N 52°28' E 004°34'0 0.0
2015-Aug-15 07:28N 52°28' E 004°34'0 0.0
2015-Aug-15 06:25N 52°28' E 004°34'0 0.1
2015-Aug-15 05:33N 52°28' E 004°34'3 2.8
2015-Aug-15 04:32N 52°30' E 004°32'3 2.9
2015-Aug-15 03:33N 52°33' E 004°31'3 3.0
2015-Aug-15 02:34N 52°36' E 004°32'1 1.1
2015-Aug-15 01:33N 52°37' E 004°31'3 3.1
2015-Aug-15 00:33N 52°40' E 004°30'3 2.8
2015-Aug-14 23:33N 52°43' E 004°31'4 4.3
2015-Aug-14 22:33N 52°46' E 004°36'39 1.5
2015-Aug-13 20:31N 53°19' E 005°08'4 4.4
2015-Aug-13 19:32N 53°19' E 005°15'2 2.4
2015-Aug-13 18:33N 53°20' E 005°12'1 1.3
2015-Aug-13 17:33N 53°22' E 005°13'  

Dump ship's entire track history